createdAt,value
2024-03-08T00:02:33.885Z,0.00
2024-03-08T00:07:34.601Z,0.00
2024-03-08T00:12:33.897Z,0.00
2024-03-08T00:17:33.783Z,0.00
2024-03-08T00:22:33.659Z,0.00
2024-03-08T00:27:33.637Z,0.00
2024-03-08T00:32:33.638Z,0.00
2024-03-08T00:37:33.482Z,0.00
2024-03-08T00:42:33.326Z,0.00
2024-03-08T00:47:36.442Z,0.00
2024-03-08T00:52:33.277Z,0.00
2024-03-08T00:57:33.207Z,0.00
2024-03-08T01:02:33.130Z,0.00
2024-03-08T01:07:33.082Z,0.00
2024-03-08T01:12:32.993Z,0.00
2024-03-08T01:17:33.131Z,0.00
2024-03-08T01:22:32.859Z,0.00
2024-03-08T01:27:32.874Z,0.00
2024-03-08T01:32:32.815Z,0.00
2024-03-08T01:37:32.761Z,0.00
2024-03-08T01:42:32.579Z,0.00
2024-03-08T01:47:35.671Z,0.00
2024-03-08T01:52:32.533Z,0.00
2024-03-08T01:57:32.458Z,0.00
2024-03-08T02:02:32.417Z,0.00
2024-03-08T02:07:32.325Z,0.00
2024-03-08T02:12:32.229Z,0.00
2024-03-08T02:17:32.258Z,0.00
2024-03-08T02:22:32.097Z,0.00
2024-03-08T02:27:32.097Z,0.00
2024-03-08T02:32:32.066Z,0.00
2024-03-08T02:37:31.929Z,0.00
2024-03-08T02:42:31.835Z,0.00
2024-03-08T02:47:34.940Z,0.00
2024-03-08T02:52:31.760Z,0.00
2024-03-08T02:57:31.709Z,0.00
2024-03-08T03:02:31.657Z,0.00
2024-03-08T03:07:31.595Z,0.00
2024-03-08T03:12:31.479Z,0.00
2024-03-08T03:17:31.492Z,0.00
2024-03-08T03:22:31.329Z,0.00
2024-03-08T03:27:31.287Z,0.00
2024-03-08T03:32:31.286Z,0.00
2024-03-08T03:37:31.372Z,0.00
2024-03-08T03:42:31.107Z,0.00
2024-03-08T03:47:34.217Z,0.00
2024-03-08T03:52:30.962Z,0.00
2024-03-08T03:57:30.945Z,0.00
2024-03-08T04:02:30.856Z,0.00
2024-03-08T04:07:30.929Z,0.00
2024-03-08T04:12:30.943Z,0.00
2024-03-08T04:17:30.844Z,0.00
2024-03-08T04:22:30.661Z,0.00
2024-03-08T04:27:30.716Z,0.00
2024-03-08T04:32:30.659Z,0.00
2024-03-08T04:37:30.779Z,0.00
2024-03-08T04:42:30.393Z,0.00
2024-03-08T04:47:33.469Z,0.00
2024-03-08T04:52:30.264Z,0.00
2024-03-08T04:57:30.154Z,0.00
2024-03-08T05:02:30.111Z,0.00
2024-03-08T05:07:30.044Z,0.00
2024-03-08T05:12:29.923Z,0.00
2024-03-08T05:17:30.815Z,4.00
2024-03-08T05:22:29.872Z,12.00
2024-03-08T05:27:29.856Z,36.00
2024-03-08T05:32:31.871Z,68.00
2024-03-08T05:37:29.686Z,136.00
2024-03-08T05:42:29.636Z,236.00
2024-03-08T05:47:32.725Z,376.00
2024-03-08T05:52:29.497Z,556.00
2024-03-08T05:57:29.448Z,780.00
2024-03-08T06:02:29.383Z,1040.00
2024-03-08T06:07:29.369Z,1360.00
2024-03-08T06:12:29.229Z,1728.00
2024-03-08T06:17:29.254Z,2132.00
2024-03-08T06:22:29.077Z,2620.00
2024-03-08T06:27:29.123Z,3248.00
2024-03-08T06:32:29.002Z,4012.00
2024-03-08T06:37:29.103Z,4608.00
2024-03-08T06:42:28.883Z,5420.00
2024-03-08T06:47:31.880Z,5828.00
2024-03-08T06:52:28.667Z,6192.00
2024-03-08T06:57:28.756Z,7112.00
2024-03-08T07:02:28.638Z,7420.00
2024-03-08T07:07:28.542Z,7888.00
2024-03-08T07:12:28.661Z,8456.00
2024-03-08T07:17:28.668Z,9016.00
2024-03-08T07:22:28.324Z,10320.00
2024-03-08T07:27:28.305Z,11032.00
2024-03-08T07:32:28.290Z,11500.00
2024-03-08T07:37:28.246Z,14144.00
2024-03-08T07:42:28.073Z,15200.00
2024-03-08T07:47:31.206Z,9156.00
2024-03-08T07:52:28.117Z,7712.00
2024-03-08T07:57:27.894Z,6932.00
2024-03-08T08:02:27.804Z,6624.00
2024-03-08T08:07:27.828Z,6596.00
2024-03-08T08:12:27.661Z,6544.00
2024-03-08T08:17:27.757Z,6576.00
2024-03-08T08:22:27.573Z,6500.00
2024-03-08T08:27:27.529Z,6480.00
2024-03-08T08:32:27.372Z,6416.00
2024-03-08T08:37:27.391Z,6424.00
2024-03-08T08:42:27.259Z,6280.00
2024-03-08T08:47:30.291Z,6356.00
2024-03-08T08:52:27.124Z,6300.00
2024-03-08T08:57:27.195Z,6328.00
2024-03-08T09:02:27.089Z,6196.00
2024-03-08T09:07:27.059Z,6356.00
2024-03-08T09:12:26.897Z,6344.00
2024-03-08T09:17:26.933Z,6100.00
2024-03-08T09:22:26.717Z,5988.00
2024-03-08T09:27:26.738Z,5788.00
2024-03-08T09:32:26.645Z,5812.00
2024-03-08T09:37:26.586Z,5804.00
2024-03-08T09:42:26.489Z,5504.00
2024-03-08T09:47:29.545Z,5524.00
2024-03-08T09:52:26.399Z,5392.00
2024-03-08T09:57:26.406Z,5336.00
2024-03-08T10:02:26.358Z,5268.00
2024-03-08T10:07:26.322Z,5364.00
2024-03-08T10:12:26.159Z,5288.00
2024-03-08T10:17:26.082Z,5180.00
2024-03-08T10:22:26.042Z,5140.00
2024-03-08T10:27:26.063Z,5152.00
2024-03-08T10:32:25.807Z,5124.00
2024-03-08T10:37:25.950Z,5044.00
2024-03-08T10:42:25.719Z,4968.00
2024-03-08T10:47:28.670Z,4968.00
2024-03-08T10:52:25.645Z,4924.00
2024-03-08T10:57:25.567Z,5212.00
2024-03-08T11:02:26.177Z,5348.00
2024-03-08T11:07:25.516Z,5048.00
2024-03-08T11:12:25.318Z,4884.00
2024-03-08T11:17:25.364Z,4844.00
2024-03-08T11:22:25.269Z,4852.00
2024-03-08T11:27:25.175Z,4764.00
2024-03-08T11:32:25.185Z,4612.00
2024-03-08T11:37:25.212Z,4660.00
2024-03-08T11:42:25.046Z,4708.00
2024-03-08T11:47:27.927Z,4768.00
2024-03-08T11:52:24.899Z,4636.00
2024-03-08T11:57:24.987Z,4584.00
2024-03-08T12:02:24.725Z,4596.00
2024-03-08T12:07:24.686Z,4612.00
2024-03-08T12:12:24.600Z,4608.00
2024-03-08T12:17:24.548Z,4528.00
2024-03-08T12:22:24.501Z,4540.00
2024-03-08T12:27:24.347Z,4524.00
2024-03-08T12:32:24.338Z,4560.00
2024-03-08T12:37:24.285Z,4380.00
2024-03-08T12:42:24.140Z,4476.00
2024-03-08T12:47:27.142Z,4144.00
2024-03-08T12:52:24.033Z,4604.00
2024-03-08T12:57:24.004Z,4668.00
2024-03-08T13:02:23.944Z,4644.00
2024-03-08T13:07:23.892Z,4656.00
2024-03-08T13:12:23.780Z,4596.00
2024-03-08T13:17:23.800Z,4816.00
2024-03-08T13:22:23.670Z,4948.00
2024-03-08T13:27:23.584Z,5024.00
2024-03-08T13:32:23.465Z,4884.00
2024-03-08T13:37:23.499Z,4380.00
2024-03-08T13:42:23.379Z,4656.00
2024-03-08T13:47:26.306Z,4712.00
2024-03-08T13:52:23.202Z,4712.00
2024-03-08T13:57:23.232Z,4760.00
2024-03-08T14:02:23.056Z,4664.00
2024-03-08T14:07:23.053Z,4928.00
2024-03-08T14:12:23.057Z,4972.00
2024-03-08T14:17:22.905Z,5132.00
2024-03-08T14:22:22.794Z,5148.00
2024-03-08T14:27:22.759Z,5024.00
2024-03-08T14:32:22.691Z,4672.00
2024-03-08T14:37:22.736Z,3704.00
2024-03-08T14:42:22.554Z,3744.00
2024-03-08T14:47:25.537Z,3344.00
2024-03-08T14:52:22.521Z,5048.00
2024-03-08T14:57:22.341Z,5212.00
2024-03-08T15:02:22.415Z,4436.00
2024-03-08T15:07:22.347Z,4276.00
2024-03-08T15:12:22.144Z,3592.00
2024-03-08T15:17:22.247Z,4020.00
2024-03-08T15:22:22.029Z,3748.00
2024-03-08T15:27:22.113Z,3480.00
2024-03-08T15:32:23.571Z,3600.00
2024-03-08T15:37:21.930Z,3444.00
2024-03-08T15:42:21.797Z,2828.00
2024-03-08T15:47:24.733Z,2704.00
2024-03-08T15:52:21.678Z,2596.00
2024-03-08T15:57:21.611Z,2440.00
2024-03-08T16:02:21.591Z,2296.00
2024-03-08T16:07:21.516Z,2164.00
2024-03-08T16:12:21.332Z,2028.00
2024-03-08T16:17:21.312Z,1860.00
2024-03-08T16:22:21.263Z,1680.00
2024-03-08T16:27:21.163Z,1508.00
2024-03-08T16:32:21.122Z,1320.00
2024-03-08T16:37:23.121Z,1128.00
2024-03-08T16:42:21.262Z,936.00
